Аэропорт: Нижневартовск. Нижневартовск

ICAO: USNN

METAR:
2021-01-19 11:00:00
USNN 191100Z 27002MPS CAVOK M31/M35 Q1016 R21/410165 NOSIG RMK QFE757
METAR:
2021-01-19 08:00:00
TAF USNN 190800Z 1909/2009 27003G08MPS 9999 SCT030 TEMPO 1909/1912 -SN FEW010